Time;durP1;ratioP1;P1;durP2;ratioP2;P2;SDS_P1;SDS_P2;PMS_P1;PMS_P2;Temp;Humidity;BMP_temperature;BMP_pressure;BME280_temperature;BME280_humidity;BME280_pressure;Samples;Min_cycle;Max_cycle;Signal;HPM_P1;HPM_P2
2021/07/12 00:00:15;;;;;;;6.05;3.55;;;;;;;;;;1484989;40;20021;-58
2021/07/12 00:01:17;;;;;;;6.53;3.30;;;;;;;;;;1485045;40;20028;-58
2021/07/12 00:02:18;;;;;;;4.90;3.33;;;;;;;;;;1484911;40;20025;-58
2021/07/12 00:03:19;;;;;;;4.88;3.65;;;;;;;;;;1484966;40;20027;-58
2021/07/12 00:04:20;;;;;;;4.75;3.33;;;;;;;;;;1485002;40;20025;-58
2021/07/12 00:05:24;;;;;;;9.25;3.70;;;;;;;;;;1485038;40;20389;-58
2021/07/12 00:06:25;;;;;;;6.40;3.38;;;;;;;;;;1484939;40;20028;-58
2021/07/12 00:07:27;;;;;;;6.82;3.13;;;;;;;;;;1484974;40;20310;-58
2021/07/12 00:08:28;;;;;;;9.10;3.13;;;;;;;;;;1484916;40;20028;-58
2021/07/12 00:09:29;;;;;;;4.55;3.00;;;;;;;;;;1484885;40;20029;-58
2021/07/12 00:10:30;;;;;;;7.43;3.08;;;;;;;;;;1485021;40;20040;-57
2021/07/12 00:11:33;;;;;;;5.57;3.47;;;;;;;;;;1484967;40;20076;-58
2021/07/12 00:12:35;;;;;;;10.45;3.05;;;;;;;;;;1484880;40;20025;-58
2021/07/12 00:13:37;;;;;;;6.68;3.03;;;;;;;;;;1485004;40;20281;-58
2021/07/12 00:14:38;;;;;;;11.73;3.22;;;;;;;;;;1484860;40;20021;-58
2021/07/12 00:15:40;;;;;;;9.68;3.38;;;;;;;;;;1485143;40;20033;-58
2021/07/12 00:16:41;;;;;;;4.65;2.80;;;;;;;;;;1484967;40;20029;-58
2021/07/12 00:17:43;;;;;;;7.40;3.00;;;;;;;;;;1484849;40;20056;-58
2021/07/12 00:18:45;;;;;;;4.25;2.80;;;;;;;;;;1484894;40;20032;-58
2021/07/12 00:19:46;;;;;;;7.22;3.28;;;;;;;;;;1484926;40;20031;-58
2021/07/12 00:20:47;;;;;;;5.75;3.22;;;;;;;;;;1484987;40;20407;-58
2021/07/12 00:21:49;;;;;;;4.63;2.97;;;;;;;;;;1484928;40;20029;-57
2021/07/12 00:22:52;;;;;;;6.53;3.17;;;;;;;;;;1484938;40;20024;-57
2021/07/12 00:23:54;;;;;;;6.63;3.38;;;;;;;;;;1485109;40;20029;-58
2021/07/12 00:24:54;;;;;;;6.03;3.17;;;;;;;;;;1484934;40;20021;-58
2021/07/12 00:25:56;;;;;;;8.38;3.25;;;;;;;;;;1484851;40;20028;-58
2021/07/12 00:26:57;;;;;;;4.28;3.08;;;;;;;;;;1484932;40;20029;-58
2021/07/12 00:28:01;;;;;;;7.88;3.47;;;;;;;;;;1485081;40;20029;-58
2021/07/12 00:29:02;;;;;;;4.88;3.00;;;;;;;;;;1484903;40;20021;-57
2021/07/12 00:30:05;;;;;;;7.60;3.22;;;;;;;;;;1485067;40;20102;-57
2021/07/12 00:31:07;;;;;;;7.60;3.83;;;;;;;;;;1484871;40;20029;-58
2021/07/12 00:32:08;;;;;;;6.80;3.72;;;;;;;;;;1484932;40;20031;-58
2021/07/12 00:33:10;;;;;;;9.23;3.78;;;;;;;;;;1485120;40;20029;-57
2021/07/12 00:34:11;;;;;;;6.32;3.30;;;;;;;;;;1484843;40;20032;-58
2021/07/12 00:35:14;;;;;;;6.93;3.58;;;;;;;;;;1484936;40;20079;-58
2021/07/12 00:36:15;;;;;;;4.35;2.90;;;;;;;;;;1484864;40;20029;-58
2021/07/12 00:37:17;;;;;;;6.88;3.45;;;;;;;;;;1484925;40;20021;-58
2021/07/12 00:38:18;;;;;;;6.82;3.42;;;;;;;;;;1484857;40;20021;-58
2021/07/12 00:39:20;;;;;;;7.38;3.70;;;;;;;;;;1484874;40;20037;-58
2021/07/12 00:40:22;;;;;;;5.75;3.65;;;;;;;;;;1484935;40;20055;-59
2021/07/12 00:41:24;;;;;;;7.93;3.60;;;;;;;;;;1485000;40;20028;-57
2021/07/12 00:42:25;;;;;;;6.85;3.30;;;;;;;;;;1484944;40;20352;-58
2021/07/12 00:43:28;;;;;;;7.57;3.30;;;;;;;;;;1484811;40;20025;-58
2021/07/12 00:44:29;;;;;;;7.55;3.85;;;;;;;;;;1484974;40;20029;-58
2021/07/12 00:45:31;;;;;;;7.10;3.22;;;;;;;;;;1484807;40;20035;-58
2021/07/12 00:46:37;;;;;;;6.10;3.40;;;;;;;;;;1484790;40;20304;-58
2021/07/12 00:47:40;;;;;;;8.80;3.40;;;;;;;;;;1484905;40;20061;-58
2021/07/12 00:48:41;;;;;;;8.80;3.50;;;;;;;;;;1484901;40;20032;-58
2021/07/12 00:49:43;;;;;;;5.80;3.38;;;;;;;;;;1484907;40;20037;-58
2021/07/12 00:50:45;;;;;;;7.40;3.78;;;;;;;;;;1484821;40;20052;-58
2021/07/12 00:51:47;;;;;;;4.93;3.42;;;;;;;;;;1484879;40;20416;-58
2021/07/12 00:52:50;;;;;;;5.68;3.67;;;;;;;;;;1484817;40;20017;-58
2021/07/12 00:53:53;;;;;;;7.32;3.70;;;;;;;;;;1484923;40;20350;-58
2021/07/12 00:54:53;;;;;;;9.18;4.03;;;;;;;;;;1484800;40;20025;-58
2021/07/12 00:55:56;;;;;;;7.00;3.60;;;;;;;;;;1484866;40;20408;-58
2021/07/12 00:56:58;;;;;;;8.65;4.00;;;;;;;;;;1484920;40;20025;-58
2021/07/12 00:58:01;;;;;;;4.45;3.38;;;;;;;;;;1484818;40;20024;-58
2021/07/12 00:59:04;;;;;;;10.13;3.90;;;;;;;;;;1484930;40;20021;-58
2021/07/12 01:00:08;;;;;;;8.82;3.50;;;;;;;;;;1484688;40;20400;-59
2021/07/12 01:01:09;;;;;;;8.65;3.63;;;;;;;;;;1484269;40;20025;-58
2021/07/12 01:02:11;;;;;;;9.15;4.25;;;;;;;;;;1484951;40;20025;-57
2021/07/12 01:03:13;;;;;;;7.25;3.70;;;;;;;;;;1484874;40;20025;-58
2021/07/12 01:04:15;;;;;;;5.55;3.90;;;;;;;;;;1485005;40;20025;-58
2021/07/12 01:05:18;;;;;;;6.18;3.63;;;;;;;;;;1484772;40;20028;-58
2021/07/12 01:06:20;;;;;;;9.45;3.95;;;;;;;;;;1484759;40;20025;-58
2021/07/12 01:07:21;;;;;;;5.72;3.45;;;;;;;;;;1484914;40;20032;-58
2021/07/12 01:08:23;;;;;;;6.55;3.90;;;;;;;;;;1484835;40;20029;-58
2021/07/12 01:09:24;;;;;;;5.80;3.70;;;;;;;;;;1484810;40;20032;-58
2021/07/12 01:10:27;;;;;;;4.72;3.50;;;;;;;;;;1484728;40;20440;-58
2021/07/12 01:11:34;;;;;;;6.60;4.00;;;;;;;;;;1484726;40;20036;-58
2021/07/12 01:12:42;;;;;;;8.15;4.00;;;;;;;;;;1484982;40;20292;-58
2021/07/12 01:13:50;;;;;;;8.70;3.63;;;;;;;;;;1484825;40;20032;-58
2021/07/12 01:15:01;;;;;;;6.55;3.63;;;;;;;;;;1484783;40;20479;-58
2021/07/12 01:16:09;;;;;;;;;;;;;;;;;;1485516;40;20029;-57
2021/07/12 01:17:15;;;;;;;7.70;3.45;;;;;;;;;;1484748;40;19932;-57
2021/07/12 01:18:24;;;;;;;8.38;3.35;;;;;;;;;;1484778;40;20025;-58
2021/07/12 01:19:51;;;;;;;5.95;3.60;;;;;;;;;;1484744;40;20025;-58
2021/07/12 01:21:49;;;;;;;5.82;4.03;;;;;;;;;;1484275;40;20059;-58
2021/07/12 01:23:13;;;;;;;6.03;3.70;;;;;;;;;;1484723;40;20055;-58
2021/07/12 01:24:47;;;;;;;5.57;3.83;;;;;;;;;;1484714;40;20028;-58
2021/07/12 01:26:22;;;;;;;5.97;3.72;;;;;;;;;;1471715;40;20378;-58
2021/07/12 01:27:42;;;;;;;6.18;4.18;;;;;;;;;;1471796;40;20379;-60
2021/07/12 01:29:01;;;;;;;6.38;4.10;;;;;;;;;;1485004;40;20061;-58
2021/07/12 01:30:10;;;;;;;7.90;3.80;;;;;;;;;;1484773;40;20025;-59
2021/07/12 01:31:45;;;;;;;4.93;3.50;;;;;;;;;;1484874;40;20289;-58
2021/07/12 01:32:57;;;;;;;5.78;3.30;;;;;;;;;;1484769;40;20036;-57
2021/07/12 01:34:01;;;;;;;5.50;3.92;;;;;;;;;;1484729;40;20024;-58
2021/07/12 01:35:05;;;;;;;7.57;4.20;;;;;;;;;;1484736;40;20021;-58
2021/07/12 01:36:16;;;;;;;9.07;4.18;;;;;;;;;;1484754;40;20032;-58
2021/07/12 01:37:38;;;;;;;7.03;4.07;;;;;;;;;;1484840;40;20036;-58
2021/07/12 01:38:44;;;;;;;8.48;3.95;;;;;;;;;;1484632;40;20021;-58
2021/07/12 01:39:52;;;;;;;6.47;4.32;;;;;;;;;;1484812;40;20025;-58
2021/07/12 01:41:00;;;;;;;5.90;4.30;;;;;;;;;;1484562;40;20035;-58
2021/07/12 01:42:04;;;;;;;6.68;4.10;;;;;;;;;;1484829;40;20354;-58
2021/07/12 01:43:14;;;;;;;9.38;4.47;;;;;;;;;;1484737;40;20032;-58
2021/07/12 01:44:33;;;;;;;7.50;4.28;;;;;;;;;;1484889;40;20025;-58
2021/07/12 01:45:44;;;;;;;6.15;3.92;;;;;;;;;;1484707;40;20036;-58
2021/07/12 01:46:48;;;;;;;7.57;4.55;;;;;;;;;;1484725;40;20305;-57
2021/07/12 01:48:02;;;;;;;5.72;3.95;;;;;;;;;;1484876;40;20110;-57
2021/07/12 01:49:08;;;;;;;6.38;4.20;;;;;;;;;;1484813;40;20021;-58
2021/07/12 01:50:16;;;;;;;7.38;4.20;;;;;;;;;;1484763;40;20297;-58
2021/07/12 01:51:25;;;;;;;11.30;4.30;;;;;;;;;;1484666;40;20052;-57
2021/07/12 01:52:31;;;;;;;7.32;4.18;;;;;;;;;;1484815;40;20317;-58
2021/07/12 01:53:40;;;;;;;6.18;4.03;;;;;;;;;;1484759;40;20032;-57
2021/07/12 01:54:52;;;;;;;7.85;4.13;;;;;;;;;;1484838;40;20314;-58
2021/07/12 01:55:58;;;;;;;11.00;4.40;;;;;;;;;;1484617;40;20028;-58
2021/07/12 01:57:04;;;;;;;6.95;4.10;;;;;;;;;;1484861;40;20056;-58
2021/07/12 01:58:12;;;;;;;7.35;4.05;;;;;;;;;;1484692;40;20013;-58
2021/07/12 01:59:19;;;;;;;8.00;4.35;;;;;;;;;;1484828;40;20029;-58
2021/07/12 02:00:19;;;;;;;6.07;4.22;;;;;;;;;;1484596;40;20036;-58
2021/07/12 02:01:25;;;;;;;7.72;4.15;;;;;;;;;;1484691;40;20381;-58
2021/07/12 02:02:30;;;;;;;6.78;4.18;;;;;;;;;;1484592;40;20017;-58
2021/07/12 02:03:35;;;;;;;5.43;3.80;;;;;;;;;;1484717;40;20029;-58
2021/07/12 02:04:37;;;;;;;10.13;4.20;;;;;;;;;;1484565;40;20021;-57
2021/07/12 02:05:41;;;;;;;6.68;3.75;;;;;;;;;;1484599;40;20107;-58
2021/07/12 02:06:42;;;;;;;6.45;4.00;;;;;;;;;;1484704;40;20020;-58
2021/07/12 02:07:45;;;;;;;8.02;4.25;;;;;;;;;;1484810;40;20036;-58
2021/07/12 02:08:49;;;;;;;7.10;4.20;;;;;;;;;;1484540;40;20055;-58
2021/07/12 02:09:52;;;;;;;7.25;3.88;;;;;;;;;;1484691;40;20029;-58
2021/07/12 02:10:54;;;;;;;5.15;4.05;;;;;;;;;;1484556;40;20028;-58
2021/07/12 02:11:58;;;;;;;8.63;4.13;;;;;;;;;;1484676;40;20037;-57
2021/07/12 02:13:00;;;;;;;8.82;3.70;;;;;;;;;;1484598;40;20416;-58
2021/07/12 02:14:02;;;;;;;6.15;4.18;;;;;;;;;;1484686;40;20415;-58
2021/07/12 02:15:05;;;;;;;7.28;3.88;;;;;;;;;;1484576;40;20031;-58
2021/07/12 02:16:07;;;;;;;8.65;4.07;;;;;;;;;;1484668;40;20036;-58
2021/07/12 02:17:10;;;;;;;10.60;4.60;;;;;;;;;;1484677;40;20024;-58
2021/07/12 02:18:13;;;;;;;6.85;4.00;;;;;;;;;;1484570;40;20029;-58
2021/07/12 02:19:16;;;;;;;5.63;3.90;;;;;;;;;;1484535;40;20060;-58
2021/07/12 02:20:20;;;;;;;6.78;3.83;;;;;;;;;;1484551;40;20366;-60
2021/07/12 02:21:21;;;;;;;7.78;4.30;;;;;;;;;;1484592;40;20021;-58
2021/07/12 02:22:24;;;;;;;8.15;4.45;;;;;;;;;;1484650;40;20033;-57
2021/07/12 02:23:26;;;;;;;7.88;3.95;;;;;;;;;;1484622;40;20388;-57
2021/07/12 02:24:30;;;;;;;13.82;4.20;;;;;;;;;;1484644;40;20025;-57
2021/07/12 02:25:31;;;;;;;8.40;4.03;;;;;;;;;;1484507;40;20081;-58
2021/07/12 02:26:34;;;;;;;8.10;4.38;;;;;;;;;;1484493;40;20029;-57
2021/07/12 02:27:36;;;;;;;7.97;4.30;;;;;;;;;;1484645;40;20093;-58
2021/07/12 02:28:42;;;;;;;9.00;4.20;;;;;;;;;;1484679;40;20029;-58
2021/07/12 02:29:43;;;;;;;8.05;3.65;;;;;;;;;;1484546;40;20419;-58
2021/07/12 02:30:46;;;;;;;8.63;4.60;;;;;;;;;;1484731;40;20109;-58
2021/07/12 02:31:48;;;;;;;7.93;4.00;;;;;;;;;;1484501;40;20384;-58
2021/07/12 02:32:52;;;;;;;6.15;4.18;;;;;;;;;;1484562;40;20112;-58
2021/07/12 02:33:53;;;;;;;5.57;3.83;;;;;;;;;;1484603;40;20028;-58
2021/07/12 02:34:57;;;;;;;9.15;4.57;;;;;;;;;;1484629;40;20064;-58
2021/07/12 02:36:00;;;;;;;9.02;4.25;;;;;;;;;;1484540;40;20021;-58
2021/07/12 02:37:03;;;;;;;6.05;4.30;;;;;;;;;;1484659;40;20025;-58
2021/07/12 02:38:07;;;;;;;8.30;4.60;;;;;;;;;;1484543;40;20032;-57
2021/07/12 02:39:09;;;;;;;9.00;4.75;;;;;;;;;;1484572;40;20041;-58
2021/07/12 02:40:12;;;;;;;9.10;4.55;;;;;;;;;;1484420;40;20354;-58
2021/07/12 02:41:14;;;;;;;6.10;4.18;;;;;;;;;;1484563;40;20033;-57
2021/07/12 02:42:15;;;;;;;7.15;4.43;;;;;;;;;;1484583;40;20059;-58
2021/07/12 02:43:19;;;;;;;6.65;4.18;;;;;;;;;;1484615;40;20029;-58
2021/07/12 02:44:20;;;;;;;7.82;4.70;;;;;;;;;;1484462;40;20025;-57
2021/07/12 02:45:25;;;;;;;8.15;4.30;;;;;;;;;;1484554;40;20028;-58
2021/07/12 02:46:28;;;;;;;9.82;4.38;;;;;;;;;;1484485;40;20033;-58
2021/07/12 02:47:30;;;;;;;9.13;4.20;;;;;;;;;;1484661;40;20036;-58
2021/07/12 02:48:31;;;;;;;8.35;3.92;;;;;;;;;;1484525;40;20021;-58
2021/07/12 02:49:34;;;;;;;9.50;4.45;;;;;;;;;;1484542;40;20093;-58
2021/07/12 02:50:39;;;;;;;5.70;4.00;;;;;;;;;;1484469;40;20033;-58
2021/07/12 02:51:45;;;;;;;8.48;4.10;;;;;;;;;;1484025;40;20147;-57
2021/07/12 02:52:49;;;;;;;7.28;4.20;;;;;;;;;;1484051;40;20025;-57
2021/07/12 02:53:58;;;;;;;9.18;4.90;;;;;;;;;;1484755;40;20044;-58
2021/07/12 02:55:00;;;;;;;9.10;4.18;;;;;;;;;;1484652;40;20032;-58
2021/07/12 02:56:02;;;;;;;7.10;4.30;;;;;;;;;;1484675;40;20032;-58
2021/07/12 02:57:04;;;;;;;5.97;3.90;;;;;;;;;;1484468;40;20105;-57
2021/07/12 02:58:06;;;;;;;8.13;4.13;;;;;;;;;;1484640;40;20032;-58
2021/07/12 02:59:07;;;;;;;6.60;4.25;;;;;;;;;;1484389;40;20024;-58
2021/07/12 03:00:11;;;;;;;6.65;4.55;;;;;;;;;;1483919;40;20040;-58
2021/07/12 03:01:12;;;;;;;6.70;4.35;;;;;;;;;;1484071;40;20032;-58
2021/07/12 03:02:13;;;;;;;7.70;4.60;;;;;;;;;;1484603;40;20032;-57
2021/07/12 03:03:14;;;;;;;9.80;4.60;;;;;;;;;;1484625;40;20024;-57
2021/07/12 03:04:16;;;;;;;7.30;4.93;;;;;;;;;;1484543;40;20031;-58
2021/07/12 03:05:17;;;;;;;9.32;4.53;;;;;;;;;;1484586;40;20043;-58
2021/07/12 03:06:25;;;;;;;9.07;4.55;;;;;;;;;;1484484;40;20067;-57
2021/07/12 03:07:29;;;;;;;9.80;4.88;;;;;;;;;;1484532;40;20030;-58
2021/07/12 03:08:39;;;;;;;8.82;4.72;;;;;;;;;;1484580;40;20037;-58
2021/07/12 03:09:43;;;;;;;8.73;4.90;;;;;;;;;;1484575;40;20028;-58
2021/07/12 03:10:50;;;;;;;7.65;4.13;;;;;;;;;;1484327;40;20037;-58
2021/07/12 03:11:56;;;;;;;7.55;4.13;;;;;;;;;;1484615;40;20288;-57
2021/07/12 03:13:00;;;;;;;7.97;4.55;;;;;;;;;;1484657;40;20390;-57
2021/07/12 03:14:09;;;;;;;7.15;4.80;;;;;;;;;;1484353;40;20025;-58
2021/07/12 03:15:13;;;;;;;7.93;4.90;;;;;;;;;;1484642;40;20029;-58
2021/07/12 03:16:14;;;;;;;6.57;4.43;;;;;;;;;;1484413;40;20025;-58
2021/07/12 03:17:17;;;;;;;8.57;4.72;;;;;;;;;;1484634;40;20029;-58
2021/07/12 03:18:21;;;;;;;8.95;4.90;;;;;;;;;;1484573;40;20032;-57
2021/07/12 03:19:33;;;;;;;11.07;4.80;;;;;;;;;;1484402;40;20098;-58
2021/07/12 03:20:35;;;;;;;7.55;4.38;;;;;;;;;;1484433;40;20055;-58
2021/07/12 03:21:41;;;;;;;8.07;4.53;;;;;;;;;;1484512;40;20060;-58
2021/07/12 03:22:45;;;;;;;9.18;4.80;;;;;;;;;;1484454;40;20025;-58
2021/07/12 03:23:50;;;;;;;8.90;5.25;;;;;;;;;;1484624;40;20082;-57
2021/07/12 03:24:53;;;;;;;8.65;5.07;;;;;;;;;;1484098;40;20144;-58
2021/07/12 03:25:59;;;;;;;9.07;5.03;;;;;;;;;;1484519;40;20032;-58
2021/07/12 03:27:01;;;;;;;10.20;4.97;;;;;;;;;;1484525;40;20021;-57
2021/07/12 03:28:05;;;;;;;8.48;4.50;;;;;;;;;;1484427;40;20363;-58
2021/07/12 03:29:07;;;;;;;8.40;4.85;;;;;;;;;;1484349;40;20017;-58
2021/07/12 03:30:11;;;;;;;6.68;4.40;;;;;;;;;;1484414;40;20069;-58
2021/07/12 03:31:12;;;;;;;8.35;4.88;;;;;;;;;;1484337;40;20024;-58
2021/07/12 03:32:16;;;;;;;8.27;5.10;;;;;;;;;;1484314;40;20029;-58
2021/07/12 03:33:20;;;;;;;8.85;5.15;;;;;;;;;;1484335;40;20368;-58
2021/07/12 03:34:22;;;;;;;39.75;7.78;;;;;;;;;;1483994;40;20021;-58
2021/07/12 03:35:26;;;;;;;35.80;7.25;;;;;;;;;;1483863;40;20025;-58
2021/07/12 03:36:30;;;;;;;23.40;6.82;;;;;;;;;;1484453;40;20040;-58
2021/07/12 03:37:34;;;;;;;19.88;6.47;;;;;;;;;;1484392;40;20296;-58
2021/07/12 03:38:39;;;;;;;39.28;7.50;;;;;;;;;;1484448;40;20021;-58
2021/07/12 03:39:41;;;;;;;36.05;7.80;;;;;;;;;;1484294;40;20087;-58
2021/07/12 03:40:44;;;;;;;44.78;8.02;;;;;;;;;;1484436;40;20065;-57
2021/07/12 03:41:45;;;;;;;37.72;7.53;;;;;;;;;;1484440;40;20017;-58
2021/07/12 03:42:47;;;;;;;16.85;5.68;;;;;;;;;;1484387;40;20025;-58
2021/07/12 03:43:48;;;;;;;13.43;5.43;;;;;;;;;;1484351;40;20027;-58
2021/07/12 03:44:53;;;;;;;10.60;4.88;;;;;;;;;;1484350;40;20288;-58
2021/07/12 03:45:55;;;;;;;39.72;6.65;;;;;;;;;;1484315;40;20033;-58
2021/07/12 03:46:57;;;;;;;19.00;6.07;;;;;;;;;;1484402;40;20028;-58
2021/07/12 03:47:58;;;;;;;47.00;7.70;;;;;;;;;;1484372;40;20076;-58
2021/07/12 03:49:00;;;;;;;32.28;6.47;;;;;;;;;;1484723;40;20033;-59
2021/07/12 03:50:03;;;;;;;34.45;6.93;;;;;;;;;;1484182;40;20021;-59
2021/07/12 03:51:07;;;;;;;27.95;6.25;;;;;;;;;;1484394;40;20021;-61
2021/07/12 03:52:08;;;;;;;46.50;7.93;;;;;;;;;;1484270;40;20078;-60
2021/07/12 03:53:11;;;;;;;63.47;7.75;;;;;;;;;;1484361;40;20033;-59
2021/07/12 03:54:12;;;;;;;24.50;5.97;;;;;;;;;;1484298;40;20036;-59
2021/07/12 03:55:17;;;;;;;70.35;9.10;;;;;;;;;;1484517;40;20118;-61
2021/07/12 03:56:18;;;;;;;72.00;8.10;;;;;;;;;;1484377;40;20024;-60
2021/07/12 03:57:23;;;;;;;57.72;8.18;;;;;;;;;;1484367;40;20029;-60
2021/07/12 03:58:24;;;;;;;45.92;7.32;;;;;;;;;;1484328;40;20036;-59
2021/07/12 03:59:25;;;;;;;21.30;6.50;;;;;;;;;;1484325;40;20393;-59
2021/07/12 04:00:28;;;;;;;32.70;6.65;;;;;;;;;;1484281;40;20032;-60
2021/07/12 04:01:30;;;;;;;28.42;6.45;;;;;;;;;;1484464;40;20025;-59
2021/07/12 04:02:31;;;;;;;19.13;5.65;;;;;;;;;;1484285;40;20025;-60
2021/07/12 04:03:32;;;;;;;60.00;7.57;;;;;;;;;;1484309;40;20036;-59
2021/07/12 04:04:33;;;;;;;35.20;6.45;;;;;;;;;;1484415;40;20025;-59
2021/07/12 04:05:35;;;;;;;25.20;5.53;;;;;;;;;;1484377;40;20403;-60
2021/07/12 04:06:36;;;;;;;33.08;6.78;;;;;;;;;;1484269;40;20031;-60
2021/07/12 04:07:39;;;;;;;44.95;7.03;;;;;;;;;;1484403;40;20025;-60
2021/07/12 04:08:42;;;;;;;90.00;10.30;;;;;;;;;;1484310;40;20041;-61
2021/07/12 04:09:43;;;;;;;99.57;11.40;;;;;;;;;;1484190;40;20037;-60
2021/07/12 04:10:44;;;;;;;36.28;6.97;;;;;;;;;;1484322;40;20040;-59
2021/07/12 04:11:49;;;;;;;48.67;7.15;;;;;;;;;;1484299;40;20381;-59
2021/07/12 04:12:50;;;;;;;16.02;5.80;;;;;;;;;;1484217;40;20480;-59
2021/07/12 04:13:52;;;;;;;42.20;6.53;;;;;;;;;;1484290;40;20036;-59
2021/07/12 04:14:54;;;;;;;16.30;5.68;;;;;;;;;;1484244;40;20032;-59
2021/07/12 04:15:55;;;;;;;12.68;5.22;;;;;;;;;;1484272;40;20061;-59
2021/07/12 04:16:56;;;;;;;17.50;5.55;;;;;;;;;;1484292;40;20025;-60
2021/07/12 04:17:58;;;;;;;22.45;5.78;;;;;;;;;;1484295;40;20025;-59
2021/07/12 04:18:59;;;;;;;14.80;5.45;;;;;;;;;;1484311;40;20035;-60
2021/07/12 04:20:01;;;;;;;9.98;5.43;;;;;;;;;;1484257;40;20376;-59
2021/07/12 04:21:02;;;;;;;22.35;6.38;;;;;;;;;;1484369;40;20051;-59
2021/07/12 04:22:04;;;;;;;29.05;6.68;;;;;;;;;;1484388;40;20053;-59
2021/07/12 04:23:06;;;;;;;31.30;5.95;;;;;;;;;;1484164;40;20055;-59
2021/07/12 04:24:08;;;;;;;28.67;6.25;;;;;;;;;;1484205;40;20392;-59
2021/07/12 04:25:12;;;;;;;20.30;6.53;;;;;;;;;;1484230;40;20029;-59
2021/07/12 04:26:13;;;;;;;44.45;7.45;;;;;;;;;;1484132;40;20021;-60
2021/07/12 04:27:15;;;;;;;25.80;6.95;;;;;;;;;;1484402;40;20021;-59
2021/07/12 04:28:16;;;;;;;32.28;6.97;;;;;;;;;;1484259;40;20027;-59
2021/07/12 04:29:18;;;;;;;18.40;5.72;;;;;;;;;;1484440;40;20028;-61
2021/07/12 04:30:19;;;;;;;19.77;5.60;;;;;;;;;;1484240;40;20031;-59
2021/07/12 04:31:21;;;;;;;51.85;7.85;;;;;;;;;;1484346;40;20032;-59
2021/07/12 04:32:22;;;;;;;24.65;6.38;;;;;;;;;;1484278;40;20033;-59
2021/07/12 04:33:25;;;;;;;44.63;7.13;;;;;;;;;;1484269;40;20348;-61
2021/07/12 04:34:26;;;;;;;23.83;6.35;;;;;;;;;;1484223;40;20412;-60
2021/07/12 04:35:28;;;;;;;8.60;5.35;;;;;;;;;;1484192;40;20024;-59
2021/07/12 04:36:29;;;;;;;35.00;7.00;;;;;;;;;;1484404;40;20021;-59
2021/07/12 04:37:31;;;;;;;11.68;5.70;;;;;;;;;;1484918;40;20028;-61
2021/07/12 04:38:32;;;;;;;19.40;6.30;;;;;;;;;;1484852;40;20025;-59
2021/07/12 04:39:35;;;;;;;27.60;6.90;;;;;;;;;;1484776;40;20025;-59
2021/07/12 04:40:36;;;;;;;23.48;6.63;;;;;;;;;;1484845;40;20281;-60
2021/07/12 04:41:38;;;;;;;62.63;8.93;;;;;;;;;;1484929;40;20036;-60
2021/07/12 04:42:39;;;;;;;30.45;7.43;;;;;;;;;;1484868;40;20032;-61
2021/07/12 04:43:40;;;;;;;28.13;7.22;;;;;;;;;;1485108;40;20033;-59
2021/07/12 04:44:41;;;;;;;45.45;7.80;;;;;;;;;;1484776;40;20021;-59
2021/07/12 04:45:43;;;;;;;23.30;6.85;;;;;;;;;;1485024;40;20036;-59
2021/07/12 04:46:44;;;;;;;16.10;6.50;;;;;;;;;;1484773;40;20105;-59
2021/07/12 04:47:46;;;;;;;46.88;8.13;;;;;;;;;;1484932;40;20032;-59
2021/07/12 04:48:47;;;;;;;55.70;8.52;;;;;;;;;;1484834;40;20029;-59
2021/07/12 04:49:49;;;;;;;19.40;6.97;;;;;;;;;;1484932;40;20320;-59
2021/07/12 04:50:49;;;;;;;13.70;6.00;;;;;;;;;;1484832;40;20415;-59
2021/07/12 04:51:51;;;;;;;26.08;6.68;;;;;;;;;;1484884;40;20025;-59
2021/07/12 04:52:52;;;;;;;39.42;7.00;;;;;;;;;;1484856;40;20034;-59
2021/07/12 04:53:54;;;;;;;41.20;7.57;;;;;;;;;;1484896;40;20032;-61
2021/07/12 04:54:56;;;;;;;46.72;7.97;;;;;;;;;;1484963;40;20069;-60
2021/07/12 04:55:58;;;;;;;24.13;6.70;;;;;;;;;;1484827;40;20311;-59
2021/07/12 04:56:59;;;;;;;15.00;6.68;;;;;;;;;;1484939;40;20043;-61
2021/07/12 04:58:01;;;;;;;42.10;7.93;;;;;;;;;;1484865;40;20029;-61
2021/07/12 04:59:04;;;;;;;58.08;8.95;;;;;;;;;;1484862;40;20045;-60
2021/07/12 05:00:08;;;;;;;22.75;6.60;;;;;;;;;;1484754;40;20025;-59
2021/07/12 05:01:09;;;;;;;42.85;8.05;;;;;;;;;;1484884;40;20237;-59
2021/07/12 05:02:13;;;;;;;32.40;7.05;;;;;;;;;;1484918;40;20033;-61
2021/07/12 05:03:16;;;;;;;24.75;7.22;;;;;;;;;;1484832;40;20389;-61
2021/07/12 05:04:18;;;;;;;11.65;6.30;;;;;;;;;;1484909;40;20113;-60
2021/07/12 05:05:18;;;;;;;16.08;6.03;;;;;;;;;;1484852;40;20032;-59
2021/07/12 05:06:20;;;;;;;25.80;7.07;;;;;;;;;;1484828;40;20028;-59
2021/07/12 05:07:21;;;;;;;10.70;6.47;;;;;;;;;;1484854;40;20288;-59
2021/07/12 05:08:23;;;;;;;15.35;6.93;;;;;;;;;;1484780;40;20025;-61
2021/07/12 05:09:24;;;;;;;62.42;9.13;;;;;;;;;;1484832;40;20021;-59
2021/07/12 05:10:27;;;;;;;36.35;8.38;;;;;;;;;;1484748;40;20441;-60
2021/07/12 05:11:31;;;;;;;55.95;9.23;;;;;;;;;;1484789;40;20024;-59
2021/07/12 05:12:33;;;;;;;14.07;6.80;;;;;;;;;;1485078;40;20060;-61
2021/07/12 05:13:35;;;;;;;17.35;6.70;;;;;;;;;;1484864;40;20037;-59
2021/07/12 05:14:37;;;;;;;14.80;6.35;;;;;;;;;;1485005;40;20039;-61
2021/07/12 05:15:37;;;;;;;10.73;6.25;;;;;;;;;;1484816;40;20036;-60
2021/07/12 05:16:41;;;;;;;12.00;6.07;;;;;;;;;;1484777;40;20439;-61
2021/07/12 05:17:42;;;;;;;23.48;6.43;;;;;;;;;;1484718;40;20138;-59
2021/07/12 05:18:44;;;;;;;25.73;6.55;;;;;;;;;;1484716;40;20029;-60
2021/07/12 05:19:45;;;;;;;13.57;5.97;;;;;;;;;;1484665;40;20051;-60
2021/07/12 05:20:47;;;;;;;20.33;6.20;;;;;;;;;;1484817;40;20088;-61
2021/07/12 05:21:48;;;;;;;39.20;7.50;;;;;;;;;;1484865;40;20025;-60
2021/07/12 05:22:49;;;;;;;28.17;7.05;;;;;;;;;;1484775;40;20280;-61
2021/07/12 05:23:50;;;;;;;14.65;6.63;;;;;;;;;;1484693;40;20411;-59
2021/07/12 05:24:52;;;;;;;10.00;6.22;;;;;;;;;;1484850;40;20025;-60
2021/07/12 05:25:56;;;;;;;10.60;6.15;;;;;;;;;;1484728;40;20021;-60
2021/07/12 05:26:57;;;;;;;9.85;5.57;;;;;;;;;;1484712;40;20028;-61
2021/07/12 05:27:59;;;;;;;10.13;5.80;;;;;;;;;;1484781;40;20029;-59
2021/07/12 05:29:00;;;;;;;14.43;6.20;;;;;;;;;;1484851;40;20021;-59
2021/07/12 05:30:04;;;;;;;14.73;6.30;;;;;;;;;;1484678;40;20029;-61
2021/07/12 05:31:05;;;;;;;10.05;5.63;;;;;;;;;;1484753;40;20021;-61
2021/07/12 05:32:07;;;;;;;7.65;5.90;;;;;;;;;;1484665;40;20065;-60
2021/07/12 05:33:10;;;;;;;17.65;6.40;;;;;;;;;;1484735;40;20400;-61
2021/07/12 05:34:12;;;;;;;10.75;6.78;;;;;;;;;;1484851;40;20025;-61
2021/07/12 05:35:13;;;;;;;10.20;6.75;;;;;;;;;;1484660;40;20024;-60
2021/07/12 05:36:15;;;;;;;8.20;6.47;;;;;;;;;;1484755;40;20385;-61
2021/07/12 05:37:16;;;;;;;9.35;6.40;;;;;;;;;;1484680;40;20388;-60
2021/07/12 05:38:17;;;;;;;13.55;7.03;;;;;;;;;;1484826;40;20025;-60
2021/07/12 05:39:18;;;;;;;11.82;6.63;;;;;;;;;;1484924;40;20025;-60
2021/07/12 05:40:20;;;;;;;18.70;7.07;;;;;;;;;;1484746;40;20343;-58
2021/07/12 05:41:22;;;;;;;9.15;6.28;;;;;;;;;;1484642;40;20025;-59
2021/07/12 05:42:25;;;;;;;11.13;7.13;;;;;;;;;;1484814;40;20025;-58
2021/07/12 05:43:26;;;;;;;8.85;6.03;;;;;;;;;;1484637;40;20029;-58
2021/07/12 05:44:28;;;;;;;11.57;6.80;;;;;;;;;;1484733;40;20399;-58
2021/07/12 05:45:29;;;;;;;7.15;5.78;;;;;;;;;;1484637;40;20400;-58
2021/07/12 05:46:31;;;;;;;9.38;6.60;;;;;;;;;;1484688;40;20017;-58
2021/07/12 05:47:32;;;;;;;13.13;6.05;;;;;;;;;;1484389;40;20028;-58
2021/07/12 05:48:34;;;;;;;8.30;6.50;;;;;;;;;;1484693;40;20028;-58
2021/07/12 05:49:35;;;;;;;8.65;6.10;;;;;;;;;;1484645;40;20021;-58
2021/07/12 05:50:36;;;;;;;8.45;5.88;;;;;;;;;;1484637;40;20035;-58
2021/07/12 05:51:37;;;;;;;10.18;6.35;;;;;;;;;;1484780;40;20051;-58
2021/07/12 05:52:39;;;;;;;8.98;6.53;;;;;;;;;;1484607;40;20021;-58
2021/07/12 05:53:40;;;;;;;8.40;6.45;;;;;;;;;;1484707;40;20393;-58
2021/07/12 05:54:42;;;;;;;9.15;6.55;;;;;;;;;;1484733;40;20350;-58
2021/07/12 05:55:43;;;;;;;9.95;6.47;;;;;;;;;;1484624;40;20021;-58
2021/07/12 05:56:46;;;;;;;8.18;6.53;;;;;;;;;;1484689;40;20265;-58
2021/07/12 05:57:48;;;;;;;11.02;6.95;;;;;;;;;;1484750;40;20032;-59
2021/07/12 05:58:50;;;;;;;10.73;7.65;;;;;;;;;;1484651;40;20045;-58
2021/07/12 05:59:50;;;;;;;12.70;8.00;;;;;;;;;;1484676;40;20032;-58
2021/07/12 06:00:52;;;;;;;11.20;8.43;;;;;;;;;;1484559;40;20044;-58
2021/07/12 06:01:53;;;;;;;9.82;8.00;;;;;;;;;;1484706;40;20040;-58
2021/07/12 06:02:55;;;;;;;12.27;7.38;;;;;;;;;;1484638;40;20025;-58
2021/07/12 06:03:56;;;;;;;10.65;7.38;;;;;;;;;;1484580;40;20025;-58
2021/07/12 06:04:58;;;;;;;9.73;7.28;;;;;;;;;;1484708;40;20032;-58
2021/07/12 06:05:59;;;;;;;8.75;7.13;;;;;;;;;;1484579;40;20021;-58
2021/07/12 06:07:00;;;;;;;8.95;6.60;;;;;;;;;;1484716;40;20036;-58
2021/07/12 06:08:02;;;;;;;10.05;7.20;;;;;;;;;;1484599;40;20040;-58
2021/07/12 06:09:04;;;;;;;9.52;6.57;;;;;;;;;;1484649;40;20024;-58
2021/07/12 06:10:06;;;;;;;7.07;5.90;;;;;;;;;;1484502;40;20032;-59
2021/07/12 06:11:09;;;;;;;7.00;6.00;;;;;;;;;;1484695;40;20027;-58
2021/07/12 06:12:12;;;;;;;7.55;5.78;;;;;;;;;;1484738;40;20036;-58
2021/07/12 06:13:14;;;;;;;7.93;6.32;;;;;;;;;;1484673;40;20347;-58
2021/07/12 06:14:15;;;;;;;6.70;5.43;;;;;;;;;;1484516;40;20032;-58
2021/07/12 06:15:16;;;;;;;7.10;6.05;;;;;;;;;;1484524;40;20017;-58
2021/07/12 06:16:17;;;;;;;7.95;5.40;;;;;;;;;;1484542;40;20300;-58
2021/07/12 06:17:19;;;;;;;10.23;6.00;;;;;;;;;;1484661;40;20035;-58
2021/07/12 06:18:20;;;;;;;6.40;5.40;;;;;;;;;;1484548;40;20027;-59